sensor_id;sensor_type;location;lat;lon;timestamp;P1;durP1;ratioP1;P2;durP2;ratioP2
19554;SDS011;9924;50.828;6.440;2023-12-20T00:02:15;12.20;;;6.88;;
19554;SDS011;9924;50.828;6.440;2023-12-20T00:04:41;10.23;;;6.60;;
19554;SDS011;9924;50.828;6.440;2023-12-20T00:07:07;11.38;;;7.50;;
19554;SDS011;9924;50.828;6.440;2023-12-20T00:09:33;11.00;;;7.10;;
19554;SDS011;9924;50.828;6.440;2023-12-20T00:11:59;11.25;;;7.70;;
19554;SDS011;9924;50.828;6.440;2023-12-20T00:14:25;12.23;;;8.57;;
19554;SDS011;9924;50.828;6.440;2023-12-20T00:16:50;16.80;;;9.70;;
19554;SDS011;9924;50.828;6.440;2023-12-20T00:19:16;14.27;;;9.45;;
19554;SDS011;9924;50.828;6.440;2023-12-20T00:21:42;16.95;;;9.13;;
19554;SDS011;9924;50.828;6.440;2023-12-20T00:24:08;15.02;;;8.27;;
19554;SDS011;9924;50.828;6.440;2023-12-20T00:26:37;16.85;;;8.93;;
19554;SDS011;9924;50.828;6.440;2023-12-20T00:29:03;12.65;;;8.13;;
19554;SDS011;9924;50.828;6.440;2023-12-20T00:31:31;13.95;;;7.70;;
19554;SDS011;9924;50.828;6.440;2023-12-20T00:33:57;14.40;;;7.13;;
19554;SDS011;9924;50.828;6.440;2023-12-20T00:36:23;15.15;;;7.53;;
19554;SDS011;9924;50.828;6.440;2023-12-20T00:38:52;9.85;;;6.63;;
19554;SDS011;9924;50.828;6.440;2023-12-20T00:41:18;15.20;;;8.15;;
19554;SDS011;9924;50.828;6.440;2023-12-20T00:43:44;15.57;;;8.00;;
19554;SDS011;9924;50.828;6.440;2023-12-20T00:46:10;14.98;;;8.38;;
19554;SDS011;9924;50.828;6.440;2023-12-20T00:48:35;14.95;;;9.38;;
19554;SDS011;9924;50.828;6.440;2023-12-20T00:51:01;16.58;;;9.20;;
19554;SDS011;9924;50.828;6.440;2023-12-20T00:53:27;18.40;;;10.13;;
19554;SDS011;9924;50.828;6.440;2023-12-20T00:55:53;19.02;;;10.75;;
19554;SDS011;9924;50.828;6.440;2023-12-20T00:58:19;22.67;;;10.68;;
19554;SDS011;9924;50.828;6.440;2023-12-20T01:00:45;19.95;;;10.98;;
19554;SDS011;9924;50.828;6.440;2023-12-20T01:03:11;21.45;;;10.82;;
19554;SDS011;9924;50.828;6.440;2023-12-20T01:05:37;18.73;;;10.95;;
19554;SDS011;9924;50.828;6.440;2023-12-20T01:08:03;28.48;;;10.93;;
19554;SDS011;9924;50.828;6.440;2023-12-20T01:10:30;22.20;;;12.18;;
19554;SDS011;9924;50.828;6.440;2023-12-20T01:12:56;30.05;;;11.38;;
19554;SDS011;9924;50.828;6.440;2023-12-20T01:15:21;19.65;;;10.27;;
19554;SDS011;9924;50.828;6.440;2023-12-20T01:17:48;16.10;;;8.85;;
19554;SDS011;9924;50.828;6.440;2023-12-20T01:20:14;14.40;;;7.70;;
19554;SDS011;9924;50.828;6.440;2023-12-20T01:22:40;15.02;;;5.90;;
19554;SDS011;9924;50.828;6.440;2023-12-20T01:25:08;15.93;;;5.22;;
19554;SDS011;9924;50.828;6.440;2023-12-20T01:27:33;12.05;;;4.13;;
19554;SDS011;9924;50.828;6.440;2023-12-20T01:29:59;11.73;;;4.25;;
19554;SDS011;9924;50.828;6.440;2023-12-20T01:32:25;13.57;;;3.20;;
19554;SDS011;9924;50.828;6.440;2023-12-20T01:34:51;9.98;;;3.72;;
19554;SDS011;9924;50.828;6.440;2023-12-20T01:37:17;12.95;;;3.47;;
19554;SDS011;9924;50.828;6.440;2023-12-20T01:39:43;12.43;;;3.90;;
19554;SDS011;9924;50.828;6.440;2023-12-20T01:42:08;12.07;;;3.28;;
19554;SDS011;9924;50.828;6.440;2023-12-20T01:44:34;13.60;;;4.55;;
19554;SDS011;9924;50.828;6.440;2023-12-20T01:47:00;15.57;;;3.92;;
19554;SDS011;9924;50.828;6.440;2023-12-20T01:49:26;9.23;;;2.63;;
19554;SDS011;9924;50.828;6.440;2023-12-20T01:51:53;12.20;;;2.72;;
19554;SDS011;9924;50.828;6.440;2023-12-20T01:54:19;10.90;;;2.75;;
19554;SDS011;9924;50.828;6.440;2023-12-20T01:56:45;10.88;;;2.30;;
19554;SDS011;9924;50.828;6.440;2023-12-20T01:59:12;16.17;;;2.55;;
19554;SDS011;9924;50.828;6.440;2023-12-20T02:01:38;6.72;;;2.22;;
19554;SDS011;9924;50.828;6.440;2023-12-20T02:04:04;11.60;;;1.90;;
19554;SDS011;9924;50.828;6.440;2023-12-20T02:06:30;12.63;;;2.80;;
19554;SDS011;9924;50.828;6.440;2023-12-20T02:08:58;10.45;;;2.28;;
19554;SDS011;9924;50.828;6.440;2023-12-20T02:11:25;11.50;;;2.63;;
19554;SDS011;9924;50.828;6.440;2023-12-20T02:13:50;12.77;;;2.03;;
19554;SDS011;9924;50.828;6.440;2023-12-20T02:16:16;8.30;;;1.80;;
19554;SDS011;9924;50.828;6.440;2023-12-20T02:18:42;13.35;;;3.17;;
19554;SDS011;9924;50.828;6.440;2023-12-20T02:21:09;14.57;;;2.47;;
19554;SDS011;9924;50.828;6.440;2023-12-20T02:23:35;12.30;;;2.55;;
19554;SDS011;9924;50.828;6.440;2023-12-20T02:26:01;16.10;;;3.35;;
19554;SDS011;9924;50.828;6.440;2023-12-20T02:28:27;12.77;;;3.15;;
19554;SDS011;9924;50.828;6.440;2023-12-20T02:30:54;12.23;;;3.25;;
19554;SDS011;9924;50.828;6.440;2023-12-20T02:33:19;9.70;;;2.90;;
19554;SDS011;9924;50.828;6.440;2023-12-20T02:35:45;16.08;;;3.08;;
19554;SDS011;9924;50.828;6.440;2023-12-20T02:38:11;12.85;;;3.13;;
19554;SDS011;9924;50.828;6.440;2023-12-20T02:40:36;17.20;;;4.15;;
19554;SDS011;9924;50.828;6.440;2023-12-20T02:43:02;19.95;;;3.22;;
19554;SDS011;9924;50.828;6.440;2023-12-20T02:45:28;13.63;;;3.65;;
19554;SDS011;9924;50.828;6.440;2023-12-20T02:47:54;10.18;;;2.90;;
19554;SDS011;9924;50.828;6.440;2023-12-20T02:50:19;11.30;;;3.47;;
19554;SDS011;9924;50.828;6.440;2023-12-20T02:52:45;14.20;;;3.83;;
19554;SDS011;9924;50.828;6.440;2023-12-20T02:55:11;13.15;;;3.70;;
19554;SDS011;9924;50.828;6.440;2023-12-20T02:57:37;14.63;;;3.97;;
19554;SDS011;9924;50.828;6.440;2023-12-20T03:00:06;18.70;;;3.80;;
19554;SDS011;9924;50.828;6.440;2023-12-20T03:02:35;10.43;;;3.10;;
19554;SDS011;9924;50.828;6.440;2023-12-20T03:05:01;11.52;;;3.10;;
19554;SDS011;9924;50.828;6.440;2023-12-20T03:07:27;10.80;;;3.10;;
19554;SDS011;9924;50.828;6.440;2023-12-20T03:09:53;16.90;;;3.85;;
19554;SDS011;9924;50.828;6.440;2023-12-20T03:12:19;10.38;;;3.03;;
19554;SDS011;9924;50.828;6.440;2023-12-20T03:14:44;14.18;;;3.83;;
19554;SDS011;9924;50.828;6.440;2023-12-20T03:17:10;12.48;;;4.20;;
19554;SDS011;9924;50.828;6.440;2023-12-20T03:19:36;17.10;;;4.18;;
19554;SDS011;9924;50.828;6.440;2023-12-20T03:22:01;15.55;;;3.92;;
19554;SDS011;9924;50.828;6.440;2023-12-20T03:24:27;14.32;;;4.53;;
19554;SDS011;9924;50.828;6.440;2023-12-20T03:26:53;12.35;;;4.05;;
19554;SDS011;9924;50.828;6.440;2023-12-20T03:29:19;15.25;;;4.70;;
19554;SDS011;9924;50.828;6.440;2023-12-20T03:31:44;12.30;;;4.43;;
19554;SDS011;9924;50.828;6.440;2023-12-20T03:34:10;12.32;;;4.20;;
19554;SDS011;9924;50.828;6.440;2023-12-20T03:36:37;14.20;;;4.68;;
19554;SDS011;9924;50.828;6.440;2023-12-20T03:39:02;20.33;;;4.72;;
19554;SDS011;9924;50.828;6.440;2023-12-20T03:41:28;20.13;;;4.32;;
19554;SDS011;9924;50.828;6.440;2023-12-20T03:43:54;18.98;;;4.72;;
19554;SDS011;9924;50.828;6.440;2023-12-20T03:46:19;12.15;;;4.25;;
19554;SDS011;9924;50.828;6.440;2023-12-20T03:48:45;17.00;;;4.75;;
19554;SDS011;9924;50.828;6.440;2023-12-20T03:51:11;12.35;;;5.05;;
19554;SDS011;9924;50.828;6.440;2023-12-20T03:53:37;14.40;;;5.40;;
19554;SDS011;9924;50.828;6.440;2023-12-20T03:56:02;13.60;;;4.90;;
19554;SDS011;9924;50.828;6.440;2023-12-20T03:58:28;12.85;;;4.85;;
19554;SDS011;9924;50.828;6.440;2023-12-20T04:00:54;17.17;;;4.80;;
19554;SDS011;9924;50.828;6.440;2023-12-20T04:03:20;12.00;;;5.07;;
19554;SDS011;9924;50.828;6.440;2023-12-20T04:05:45;14.60;;;4.68;;
19554;SDS011;9924;50.828;6.440;2023-12-20T04:08:11;17.20;;;5.10;;
19554;SDS011;9924;50.828;6.440;2023-12-20T04:10:37;20.15;;;5.30;;
19554;SDS011;9924;50.828;6.440;2023-12-20T04:13:03;19.38;;;5.15;;
19554;SDS011;9924;50.828;6.440;2023-12-20T04:15:29;15.25;;;5.10;;
19554;SDS011;9924;50.828;6.440;2023-12-20T04:17:55;14.43;;;5.82;;
19554;SDS011;9924;50.828;6.440;2023-12-20T04:20:20;20.83;;;5.05;;
19554;SDS011;9924;50.828;6.440;2023-12-20T04:22:46;22.15;;;6.22;;
19554;SDS011;9924;50.828;6.440;2023-12-20T04:25:12;16.23;;;6.35;;
19554;SDS011;9924;50.828;6.440;2023-12-20T04:27:37;19.20;;;5.20;;
19554;SDS011;9924;50.828;6.440;2023-12-20T04:30:03;13.98;;;4.53;;
19554;SDS011;9924;50.828;6.440;2023-12-20T04:32:29;20.25;;;5.53;;
19554;SDS011;9924;50.828;6.440;2023-12-20T04:34:55;12.70;;;4.50;;
19554;SDS011;9924;50.828;6.440;2023-12-20T04:37:20;18.10;;;6.38;;
19554;SDS011;9924;50.828;6.440;2023-12-20T04:39:46;14.45;;;5.38;;
19554;SDS011;9924;50.828;6.440;2023-12-20T04:42:12;17.48;;;5.53;;
19554;SDS011;9924;50.828;6.440;2023-12-20T04:44:37;15.30;;;5.05;;
19554;SDS011;9924;50.828;6.440;2023-12-20T04:47:03;14.50;;;4.97;;
19554;SDS011;9924;50.828;6.440;2023-12-20T04:49:29;18.05;;;4.82;;
19554;SDS011;9924;50.828;6.440;2023-12-20T04:51:54;22.00;;;4.57;;
19554;SDS011;9924;50.828;6.440;2023-12-20T04:54:20;15.75;;;4.57;;
19554;SDS011;9924;50.828;6.440;2023-12-20T04:56:46;16.27;;;4.03;;
19554;SDS011;9924;50.828;6.440;2023-12-20T04:59:12;13.63;;;3.78;;
19554;SDS011;9924;50.828;6.440;2023-12-20T05:01:38;14.93;;;3.97;;
19554;SDS011;9924;50.828;6.440;2023-12-20T05:04:04;15.55;;;4.40;;
19554;SDS011;9924;50.828;6.440;2023-12-20T05:06:29;20.02;;;4.78;;
19554;SDS011;9924;50.828;6.440;2023-12-20T05:08:55;15.15;;;4.60;;
19554;SDS011;9924;50.828;6.440;2023-12-20T05:11:21;21.70;;;4.55;;
19554;SDS011;9924;50.828;6.440;2023-12-20T05:13:46;13.15;;;4.10;;
19554;SDS011;9924;50.828;6.440;2023-12-20T05:16:12;12.80;;;3.97;;
19554;SDS011;9924;50.828;6.440;2023-12-20T05:18:39;13.65;;;3.85;;
19554;SDS011;9924;50.828;6.440;2023-12-20T05:21:05;17.77;;;4.15;;
19554;SDS011;9924;50.828;6.440;2023-12-20T05:23:31;14.63;;;4.05;;
19554;SDS011;9924;50.828;6.440;2023-12-20T05:25:56;19.83;;;5.03;;
19554;SDS011;9924;50.828;6.440;2023-12-20T05:28:22;20.50;;;5.30;;
19554;SDS011;9924;50.828;6.440;2023-12-20T05:30:47;16.95;;;4.57;;
19554;SDS011;9924;50.828;6.440;2023-12-20T05:33:13;18.65;;;4.85;;
19554;SDS011;9924;50.828;6.440;2023-12-20T05:35:39;16.77;;;4.65;;
19554;SDS011;9924;50.828;6.440;2023-12-20T05:38:05;17.55;;;4.50;;
19554;SDS011;9924;50.828;6.440;2023-12-20T05:40:31;21.05;;;4.15;;
19554;SDS011;9924;50.828;6.440;2023-12-20T05:42:56;18.58;;;5.35;;
19554;SDS011;9924;50.828;6.440;2023-12-20T05:45:22;18.63;;;5.15;;
19554;SDS011;9924;50.828;6.440;2023-12-20T05:47:47;16.02;;;4.18;;
19554;SDS011;9924;50.828;6.440;2023-12-20T05:50:13;20.60;;;4.85;;
19554;SDS011;9924;50.828;6.440;2023-12-20T05:52:40;16.52;;;4.70;;
19554;SDS011;9924;50.828;6.440;2023-12-20T05:55:06;20.38;;;5.00;;
19554;SDS011;9924;50.828;6.440;2023-12-20T05:57:32;20.17;;;4.30;;
19554;SDS011;9924;50.828;6.440;2023-12-20T05:59:57;15.98;;;4.20;;
19554;SDS011;9924;50.828;6.440;2023-12-20T06:02:23;19.30;;;4.30;;
19554;SDS011;9924;50.828;6.440;2023-12-20T06:04:48;12.73;;;4.25;;
19554;SDS011;9924;50.828;6.440;2023-12-20T06:07:14;17.27;;;3.97;;
19554;SDS011;9924;50.828;6.440;2023-12-20T06:09:40;14.52;;;4.40;;
19554;SDS011;9924;50.828;6.440;2023-12-20T06:12:06;21.83;;;4.32;;
19554;SDS011;9924;50.828;6.440;2023-12-20T06:14:33;13.07;;;4.05;;
19554;SDS011;9924;50.828;6.440;2023-12-20T06:16:59;13.75;;;3.92;;
19554;SDS011;9924;50.828;6.440;2023-12-20T06:19:26;16.50;;;4.72;;
19554;SDS011;9924;50.828;6.440;2023-12-20T06:21:52;18.60;;;5.00;;
19554;SDS011;9924;50.828;6.440;2023-12-20T06:24:17;15.30;;;3.92;;
19554;SDS011;9924;50.828;6.440;2023-12-20T06:26:43;14.32;;;4.20;;
19554;SDS011;9924;50.828;6.440;2023-12-20T06:29:09;20.35;;;4.72;;
19554;SDS011;9924;50.828;6.440;2023-12-20T06:31:34;11.32;;;3.83;;
19554;SDS011;9924;50.828;6.440;2023-12-20T06:34:00;11.75;;;4.07;;
19554;SDS011;9924;50.828;6.440;2023-12-20T06:36:26;14.43;;;4.50;;
19554;SDS011;9924;50.828;6.440;2023-12-20T06:38:52;15.23;;;4.35;;
19554;SDS011;9924;50.828;6.440;2023-12-20T06:41:17;14.80;;;4.80;;
19554;SDS011;9924;50.828;6.440;2023-12-20T06:43:43;16.33;;;4.20;;
19554;SDS011;9924;50.828;6.440;2023-12-20T06:46:09;18.02;;;4.43;;
19554;SDS011;9924;50.828;6.440;2023-12-20T06:48:35;14.48;;;3.83;;
19554;SDS011;9924;50.828;6.440;2023-12-20T06:51:01;13.77;;;3.55;;
19554;SDS011;9924;50.828;6.440;2023-12-20T06:53:29;13.27;;;3.72;;
19554;SDS011;9924;50.828;6.440;2023-12-20T06:55:55;14.30;;;3.83;;
19554;SDS011;9924;50.828;6.440;2023-12-20T06:58:24;10.85;;;3.70;;
19554;SDS011;9924;50.828;6.440;2023-12-20T07:00:50;11.63;;;2.97;;
19554;SDS011;9924;50.828;6.440;2023-12-20T07:03:16;16.63;;;3.72;;
19554;SDS011;9924;50.828;6.440;2023-12-20T07:05:42;13.82;;;3.60;;
19554;SDS011;9924;50.828;6.440;2023-12-20T07:08:08;16.88;;;3.78;;
19554;SDS011;9924;50.828;6.440;2023-12-20T07:10:34;20.58;;;3.88;;
19554;SDS011;9924;50.828;6.440;2023-12-20T07:12:59;14.57;;;4.20;;
19554;SDS011;9924;50.828;6.440;2023-12-20T07:15:25;18.77;;;3.90;;
19554;SDS011;9924;50.828;6.440;2023-12-20T07:17:52;11.23;;;3.70;;
19554;SDS011;9924;50.828;6.440;2023-12-20T07:20:18;15.90;;;4.10;;
19554;SDS011;9924;50.828;6.440;2023-12-20T07:22:43;10.23;;;3.25;;
19554;SDS011;9924;50.828;6.440;2023-12-20T07:25:09;17.67;;;4.55;;
19554;SDS011;9924;50.828;6.440;2023-12-20T07:27:35;13.80;;;3.83;;
19554;SDS011;9924;50.828;6.440;2023-12-20T07:30:01;18.52;;;4.88;;
19554;SDS011;9924;50.828;6.440;2023-12-20T07:32:27;16.13;;;4.15;;
19554;SDS011;9924;50.828;6.440;2023-12-20T07:34:52;15.98;;;4.25;;
19554;SDS011;9924;50.828;6.440;2023-12-20T07:37:19;13.82;;;3.78;;
19554;SDS011;9924;50.828;6.440;2023-12-20T07:39:46;15.88;;;4.30;;
19554;SDS011;9924;50.828;6.440;2023-12-20T07:42:11;18.98;;;4.47;;
19554;SDS011;9924;50.828;6.440;2023-12-20T07:44:37;13.48;;;4.50;;
19554;SDS011;9924;50.828;6.440;2023-12-20T07:47:03;20.73;;;4.10;;
19554;SDS011;9924;50.828;6.440;2023-12-20T07:49:29;17.15;;;4.43;;
19554;SDS011;9924;50.828;6.440;2023-12-20T07:51:55;17.85;;;3.72;;
19554;SDS011;9924;50.828;6.440;2023-12-20T07:54:21;13.68;;;3.72;;
19554;SDS011;9924;50.828;6.440;2023-12-20T07:56:47;17.73;;;4.85;;
19554;SDS011;9924;50.828;6.440;2023-12-20T07:59:13;13.85;;;4.57;;
19554;SDS011;9924;50.828;6.440;2023-12-20T08:01:39;13.48;;;4.22;;
19554;SDS011;9924;50.828;6.440;2023-12-20T08:04:05;23.48;;;5.15;;
19554;SDS011;9924;50.828;6.440;2023-12-20T08:06:31;14.18;;;4.78;;
19554;SDS011;9924;50.828;6.440;2023-12-20T08:08:56;18.10;;;4.13;;
19554;SDS011;9924;50.828;6.440;2023-12-20T08:11:22;25.05;;;5.68;;
19554;SDS011;9924;50.828;6.440;2023-12-20T08:13:48;17.77;;;5.00;;
19554;SDS011;9924;50.828;6.440;2023-12-20T08:16:13;16.55;;;4.13;;
19554;SDS011;9924;50.828;6.440;2023-12-20T08:18:40;15.57;;;4.90;;
19554;SDS011;9924;50.828;6.440;2023-12-20T08:21:06;17.65;;;4.82;;
19554;SDS011;9924;50.828;6.440;2023-12-20T08:23:35;14.18;;;4.03;;
19554;SDS011;9924;50.828;6.440;2023-12-20T08:26:04;16.88;;;4.55;;
19554;SDS011;9924;50.828;6.440;2023-12-20T08:28:33;16.63;;;4.57;;
19554;SDS011;9924;50.828;6.440;2023-12-20T08:30:59;11.68;;;4.07;;
19554;SDS011;9924;50.828;6.440;2023-12-20T08:33:26;18.15;;;4.22;;
19554;SDS011;9924;50.828;6.440;2023-12-20T08:35:52;15.77;;;3.83;;
19554;SDS011;9924;50.828;6.440;2023-12-20T08:38:17;14.27;;;4.60;;
19554;SDS011;9924;50.828;6.440;2023-12-20T08:40:43;16.27;;;4.05;;
19554;SDS011;9924;50.828;6.440;2023-12-20T08:43:09;11.95;;;4.45;;
19554;SDS011;9924;50.828;6.440;2023-12-20T08:45:35;10.35;;;3.63;;
19554;SDS011;9924;50.828;6.440;2023-12-20T08:48:01;14.93;;;4.20;;
19554;SDS011;9924;50.828;6.440;2023-12-20T08:50:28;17.42;;;3.70;;
19554;SDS011;9924;50.828;6.440;2023-12-20T08:52:54;16.13;;;3.78;;
19554;SDS011;9924;50.828;6.440;2023-12-20T08:55:19;19.40;;;4.38;;
19554;SDS011;9924;50.828;6.440;2023-12-20T08:57:45;11.68;;;3.50;;
19554;SDS011;9924;50.828;6.440;2023-12-20T09:00:11;18.75;;;4.25;;
19554;SDS011;9924;50.828;6.440;2023-12-20T09:02:37;13.05;;;3.80;;
19554;SDS011;9924;50.828;6.440;2023-12-20T09:05:03;15.63;;;4.28;;
19554;SDS011;9924;50.828;6.440;2023-12-20T09:07:29;13.55;;;5.60;;
19554;SDS011;9924;50.828;6.440;2023-12-20T09:09:56;19.90;;;4.43;;
19554;SDS011;9924;50.828;6.440;2023-12-20T09:12:22;9.98;;;3.25;;
19554;SDS011;9924;50.828;6.440;2023-12-20T09:14:49;14.95;;;3.85;;
19554;SDS011;9924;50.828;6.440;2023-12-20T09:17:16;12.23;;;3.45;;
19554;SDS011;9924;50.828;6.440;2023-12-20T09:19:42;10.38;;;3.40;;
19554;SDS011;9924;50.828;6.440;2023-12-20T09:22:11;10.90;;;4.32;;
19554;SDS011;9924;50.828;6.440;2023-12-20T09:24:37;13.05;;;3.03;;
19554;SDS011;9924;50.828;6.440;2023-12-20T09:27:04;12.23;;;3.30;;
19554;SDS011;9924;50.828;6.440;2023-12-20T09:29:30;8.20;;;3.08;;
19554;SDS011;9924;50.828;6.440;2023-12-20T09:31:56;11.63;;;3.47;;
19554;SDS011;9924;50.828;6.440;2023-12-20T09:34:22;11.73;;;3.13;;
19554;SDS011;9924;50.828;6.440;2023-12-20T09:36:49;9.55;;;2.47;;
19554;SDS011;9924;50.828;6.440;2023-12-20T09:39:16;14.73;;;3.17;;
19554;SDS011;9924;50.828;6.440;2023-12-20T09:41:51;17.85;;;3.30;;
19554;SDS011;9924;50.828;6.440;2023-12-20T09:44:25;11.15;;;3.28;;
19554;SDS011;9924;50.828;6.440;2023-12-20T09:46:51;16.63;;;4.18;;
19554;SDS011;9924;50.828;6.440;2023-12-20T09:49:19;9.15;;;3.13;;
19554;SDS011;9924;50.828;6.440;2023-12-20T09:51:46;14.80;;;3.65;;
19554;SDS011;9924;50.828;6.440;2023-12-20T09:54:15;11.13;;;3.15;;
19554;SDS011;9924;50.828;6.440;2023-12-20T09:56:42;18.42;;;3.10;;
19554;SDS011;9924;50.828;6.440;2023-12-20T09:59:08;11.80;;;3.38;;
19554;SDS011;9924;50.828;6.440;2023-12-20T10:01:34;10.95;;;3.00;;
19554;SDS011;9924;50.828;6.440;2023-12-20T10:04:03;11.27;;;3.03;;
19554;SDS011;9924;50.828;6.440;2023-12-20T10:06:36;8.32;;;2.80;;
19554;SDS011;9924;50.828;6.440;2023-12-20T10:09:03;14.00;;;3.25;;
19554;SDS011;9924;50.828;6.440;2023-12-20T10:11:29;12.15;;;3.50;;
19554;SDS011;9924;50.828;6.440;2023-12-20T10:14:00;13.10;;;3.67;;
19554;SDS011;9924;50.828;6.440;2023-12-20T10:16:26;9.30;;;3.05;;
19554;SDS011;9924;50.828;6.440;2023-12-20T10:18:53;10.88;;;2.85;;
19554;SDS011;9924;50.828;6.440;2023-12-20T10:21:19;13.07;;;2.70;;
19554;SDS011;9924;50.828;6.440;2023-12-20T10:23:46;12.57;;;2.85;;
19554;SDS011;9924;50.828;6.440;2023-12-20T10:28:51;16.23;;;2.80;;
19554;SDS011;9924;50.828;6.440;2023-12-20T10:31:28;11.95;;;3.30;;
19554;SDS011;9924;50.828;6.440;2023-12-20T10:33:57;12.15;;;2.70;;
19554;SDS011;9924;50.828;6.440;2023-12-20T10:36:24;12.27;;;2.85;;
19554;SDS011;9924;50.828;6.440;2023-12-20T10:38:52;12.45;;;4.40;;
19554;SDS011;9924;50.828;6.440;2023-12-20T10:41:19;12.30;;;2.85;;
19554;SDS011;9924;50.828;6.440;2023-12-20T10:43:58;15.75;;;4.05;;
19554;SDS011;9924;50.828;6.440;2023-12-20T10:46:26;9.57;;;4.32;;
19554;SDS011;9924;50.828;6.440;2023-12-20T10:48:53;11.23;;;2.75;;
19554;SDS011;9924;50.828;6.440;2023-12-20T10:51:20;12.05;;;2.55;;
19554;SDS011;9924;50.828;6.440;2023-12-20T10:53:47;14.63;;;3.10;;
19554;SDS011;9924;50.828;6.440;2023-12-20T10:56:17;10.10;;;2.85;;
19554;SDS011;9924;50.828;6.440;2023-12-20T10:58:43;13.63;;;3.28;;
19554;SDS011;9924;50.828;6.440;2023-12-20T11:01:11;13.20;;;3.50;;
19554;SDS011;9924;50.828;6.440;2023-12-20T11:03:41;11.38;;;2.60;;
19554;SDS011;9924;50.828;6.440;2023-12-20T11:09:14;11.77;;;2.72;;
19554;SDS011;9924;50.828;6.440;2023-12-20T11:14:49;8.95;;;3.30;;
19554;SDS011;9924;50.828;6.440;2023-12-20T11:17:17;9.18;;;3.05;;
19554;SDS011;9924;50.828;6.440;2023-12-20T11:20:04;16.63;;;3.70;;
19554;SDS011;9924;50.828;6.440;2023-12-20T11:22:30;13.07;;;2.70;;
19554;SDS011;9924;50.828;6.440;2023-12-20T11:25:14;6.03;;;2.80;;
19554;SDS011;9924;50.828;6.440;2023-12-20T11:27:41;12.95;;;3.28;;
19554;SDS011;9924;50.828;6.440;2023-12-20T11:30:08;9.70;;;2.78;;
19554;SDS011;9924;50.828;6.440;2023-12-20T11:32:35;10.50;;;2.95;;
19554;SDS011;9924;50.828;6.440;2023-12-20T11:35:16;8.23;;;3.15;;
19554;SDS011;9924;50.828;6.440;2023-12-20T11:37:43;11.85;;;3.17;;
19554;SDS011;9924;50.828;6.440;2023-12-20T11:40:13;5.90;;;3.10;;
19554;SDS011;9924;50.828;6.440;2023-12-20T11:42:41;14.65;;;3.47;;
19554;SDS011;9924;50.828;6.440;2023-12-20T11:45:08;16.08;;;3.40;;
19554;SDS011;9924;50.828;6.440;2023-12-20T11:47:35;13.80;;;3.30;;
19554;SDS011;9924;50.828;6.440;2023-12-20T11:50:01;10.40;;;3.33;;
19554;SDS011;9924;50.828;6.440;2023-12-20T11:52:29;13.13;;;3.50;;
19554;SDS011;9924;50.828;6.440;2023-12-20T11:54:55;13.60;;;3.22;;
19554;SDS011;9924;50.828;6.440;2023-12-20T11:57:21;10.32;;;2.95;;
19554;SDS011;9924;50.828;6.440;2023-12-20T11:59:47;17.95;;;3.13;;
19554;SDS011;9924;50.828;6.440;2023-12-20T12:02:13;12.80;;;3.28;;
19554;SDS011;9924;50.828;6.440;2023-12-20T12:04:41;9.88;;;3.13;;
19554;SDS011;9924;50.828;6.440;2023-12-20T12:07:07;13.63;;;3.58;;
19554;SDS011;9924;50.828;6.440;2023-12-20T12:09:32;13.82;;;3.65;;
19554;SDS011;9924;50.828;6.440;2023-12-20T12:11:58;11.57;;;3.50;;
19554;SDS011;9924;50.828;6.440;2023-12-20T12:14:24;12.00;;;3.50;;
19554;SDS011;9924;50.828;6.440;2023-12-20T12:16:50;13.95;;;3.30;;
19554;SDS011;9924;50.828;6.440;2023-12-20T12:19:21;12.85;;;3.63;;
19554;SDS011;9924;50.828;6.440;2023-12-20T12:21:48;9.27;;;3.92;;
19554;SDS011;9924;50.828;6.440;2023-12-20T12:24:35;23.08;;;3.65;;
19554;SDS011;9924;50.828;6.440;2023-12-20T12:27:02;20.67;;;3.92;;
19554;SDS011;9924;50.828;6.440;2023-12-20T12:29:28;10.20;;;3.40;;
19554;SDS011;9924;50.828;6.440;2023-12-20T12:31:55;13.52;;;3.10;;
19554;SDS011;9924;50.828;6.440;2023-12-20T12:34:20;12.27;;;3.47;;
19554;SDS011;9924;50.828;6.440;2023-12-20T12:36:46;12.52;;;3.95;;
19554;SDS011;9924;50.828;6.440;2023-12-20T12:39:14;13.25;;;3.70;;
19554;SDS011;9924;50.828;6.440;2023-12-20T12:41:40;7.05;;;3.00;;
19554;SDS011;9924;50.828;6.440;2023-12-20T12:44:06;14.30;;;3.72;;
19554;SDS011;9924;50.828;6.440;2023-12-20T12:46:32;12.85;;;3.30;;
19554;SDS011;9924;50.828;6.440;2023-12-20T12:48:58;13.90;;;3.53;;
19554;SDS011;9924;50.828;6.440;2023-12-20T12:51:23;14.15;;;3.50;;
19554;SDS011;9924;50.828;6.440;2023-12-20T12:53:49;15.65;;;3.70;;
19554;SDS011;9924;50.828;6.440;2023-12-20T12:56:15;11.63;;;3.10;;
19554;SDS011;9924;50.828;6.440;2023-12-20T12:58:40;15.18;;;3.78;;
19554;SDS011;9924;50.828;6.440;2023-12-20T13:01:07;15.30;;;3.78;;
19554;SDS011;9924;50.828;6.440;2023-12-20T13:03:32;12.68;;;3.30;;
19554;SDS011;9924;50.828;6.440;2023-12-20T13:05:59;13.30;;;4.35;;
19554;SDS011;9924;50.828;6.440;2023-12-20T13:08:26;9.40;;;2.83;;
19554;SDS011;9924;50.828;6.440;2023-12-20T13:10:51;15.57;;;3.30;;
19554;SDS011;9924;50.828;6.440;2023-12-20T13:13:17;11.20;;;3.08;;
19554;SDS011;9924;50.828;6.440;2023-12-20T13:15:43;11.10;;;3.33;;
19554;SDS011;9924;50.828;6.440;2023-12-20T13:18:15;9.82;;;3.00;;
19554;SDS011;9924;50.828;6.440;2023-12-20T13:20:42;6.88;;;3.03;;
19554;SDS011;9924;50.828;6.440;2023-12-20T13:23:08;16.55;;;3.00;;
19554;SDS011;9924;50.828;6.440;2023-12-20T13:25:33;16.95;;;3.20;;
19554;SDS011;9924;50.828;6.440;2023-12-20T13:27:59;12.70;;;3.25;;
19554;SDS011;9924;50.828;6.440;2023-12-20T13:30:24;13.85;;;3.08;;
19554;SDS011;9924;50.828;6.440;2023-12-20T13:32:50;11.38;;;3.50;;
19554;SDS011;9924;50.828;6.440;2023-12-20T13:35:16;9.75;;;2.95;;
19554;SDS011;9924;50.828;6.440;2023-12-20T13:37:41;10.95;;;3.13;;
19554;SDS011;9924;50.828;6.440;2023-12-20T13:40:07;7.47;;;2.92;;
19554;SDS011;9924;50.828;6.440;2023-12-20T13:42:33;13.45;;;3.50;;
19554;SDS011;9924;50.828;6.440;2023-12-20T13:44:59;9.73;;;3.40;;
19554;SDS011;9924;50.828;6.440;2023-12-20T13:47:26;9.15;;;4.05;;
19554;SDS011;9924;50.828;6.440;2023-12-20T13:49:51;13.90;;;3.28;;
19554;SDS011;9924;50.828;6.440;2023-12-20T13:52:17;25.17;;;9.50;;
19554;SDS011;9924;50.828;6.440;2023-12-20T13:54:43;15.75;;;5.53;;
19554;SDS011;9924;50.828;6.440;2023-12-20T13:57:09;17.88;;;7.13;;
19554;SDS011;9924;50.828;6.440;2023-12-20T13:59:34;13.35;;;6.13;;
19554;SDS011;9924;50.828;6.440;2023-12-20T14:02:00;15.70;;;5.32;;
19554;SDS011;9924;50.828;6.440;2023-12-20T14:04:28;17.08;;;7.13;;
19554;SDS011;9924;50.828;6.440;2023-12-20T14:06:54;23.85;;;9.77;;
19554;SDS011;9924;50.828;6.440;2023-12-20T14:09:19;6.93;;;3.35;;
19554;SDS011;9924;50.828;6.440;2023-12-20T14:11:46;12.27;;;4.70;;
19554;SDS011;9924;50.828;6.440;2023-12-20T14:14:11;11.25;;;5.10;;
19554;SDS011;9924;50.828;6.440;2023-12-20T14:16:37;10.50;;;5.65;;
19554;SDS011;9924;50.828;6.440;2023-12-20T14:19:03;9.57;;;3.83;;
19554;SDS011;9924;50.828;6.440;2023-12-20T14:21:29;19.35;;;5.88;;
19554;SDS011;9924;50.828;6.440;2023-12-20T14:23:54;13.65;;;4.38;;
19554;SDS011;9924;50.828;6.440;2023-12-20T14:26:20;13.73;;;4.63;;
19554;SDS011;9924;50.828;6.440;2023-12-20T14:28:45;10.55;;;3.35;;
19554;SDS011;9924;50.828;6.440;2023-12-20T14:31:11;9.25;;;3.53;;
19554;SDS011;9924;50.828;6.440;2023-12-20T14:33:37;13.30;;;4.15;;
19554;SDS011;9924;50.828;6.440;2023-12-20T14:36:04;10.43;;;3.95;;
19554;SDS011;9924;50.828;6.440;2023-12-20T14:38:30;7.55;;;3.72;;
19554;SDS011;9924;50.828;6.440;2023-12-20T14:40:56;14.32;;;5.15;;
19554;SDS011;9924;50.828;6.440;2023-12-20T14:43:22;11.00;;;3.38;;
19554;SDS011;9924;50.828;6.440;2023-12-20T14:45:48;13.45;;;5.50;;
19554;SDS011;9924;50.828;6.440;2023-12-20T14:48:14;18.08;;;4.13;;
19554;SDS011;9924;50.828;6.440;2023-12-20T14:50:40;14.35;;;5.78;;
19554;SDS011;9924;50.828;6.440;2023-12-20T14:53:07;20.52;;;5.18;;